createdAt,value
2022-08-17T00:03:05.890Z,17.95
2022-08-17T00:07:07.470Z,17.86
2022-08-17T00:11:12.553Z,17.87
2022-08-17T00:15:15.404Z,17.90
2022-08-17T00:19:23.279Z,17.96
2022-08-17T00:23:25.701Z,18.01
2022-08-17T00:27:27.109Z,18.04
2022-08-17T00:31:28.746Z,18.07
2022-08-17T00:35:30.183Z,17.99
2022-08-17T00:39:31.708Z,18.01
2022-08-17T00:43:46.433Z,18.02
2022-08-17T00:47:49.433Z,18.01
2022-08-17T00:51:57.395Z,17.95
2022-08-17T00:56:01.947Z,17.95
2022-08-17T01:00:12.765Z,18.00
2022-08-17T01:04:16.082Z,18.00
2022-08-17T01:08:22.138Z,18.00
2022-08-17T01:12:23.614Z,17.99
2022-08-17T01:16:28.823Z,17.98
2022-08-17T01:20:30.463Z,17.90
2022-08-17T01:24:52.099Z,17.87
2022-08-17T01:28:55.785Z,17.84
2022-08-17T01:32:57.874Z,17.81
2022-08-17T01:37:00.419Z,17.76
2022-08-17T01:41:06.885Z,17.72
2022-08-17T01:45:14.756Z,17.68
2022-08-17T01:49:16.329Z,17.66
2022-08-17T01:53:34.157Z,17.45
2022-08-17T01:57:36.159Z,17.37
2022-08-17T02:01:38.019Z,17.50
2022-08-17T02:05:40.161Z,17.61
2022-08-17T02:09:42.196Z,17.75
2022-08-17T02:13:45.613Z,17.87
2022-08-17T02:17:47.803Z,17.97
2022-08-17T02:21:56.326Z,18.08
2022-08-17T02:25:59.696Z,18.18
2022-08-17T02:30:01.131Z,18.37
2022-08-17T02:34:04.055Z,18.63
2022-08-17T02:38:06.908Z,18.81
2022-08-17T02:42:08.526Z,18.84
2022-08-17T02:46:09.897Z,18.86
2022-08-17T02:50:15.029Z,18.84
2022-08-17T02:54:41.387Z,18.85
2022-08-17T02:58:38.821Z,18.85
2022-08-17T03:02:42.112Z,18.91
2022-08-17T03:06:43.813Z,18.96
2022-08-17T03:10:46.209Z,18.98
2022-08-17T03:14:47.621Z,19.02
2022-08-17T03:18:49.194Z,19.01
2022-08-17T03:22:55.508Z,18.94
2022-08-17T03:27:04.348Z,18.75
2022-08-17T03:31:06.870Z,18.71
2022-08-17T03:35:10.483Z,18.70
2022-08-17T03:39:14.366Z,18.75
2022-08-17T03:43:16.802Z,18.69
2022-08-17T03:47:37.137Z,18.73
2022-08-17T03:51:57.270Z,18.78
2022-08-17T03:56:18.915Z,18.73
2022-08-17T04:00:20.389Z,18.71
2022-08-17T04:04:27.706Z,18.74
2022-08-17T04:08:30.183Z,18.75
2022-08-17T04:12:43.923Z,18.77
2022-08-17T04:16:45.354Z,18.80
2022-08-17T04:20:46.912Z,18.77
2022-08-17T04:24:48.374Z,18.79
2022-08-17T04:28:50.066Z,18.81
2022-08-17T04:33:06.444Z,18.67
2022-08-17T04:37:08.753Z,18.63
2022-08-17T04:41:30.394Z,18.58
2022-08-17T04:45:32.689Z,18.60
2022-08-17T04:49:35.113Z,18.68
2022-08-17T04:53:38.072Z,18.75
2022-08-17T04:57:44.580Z,18.71
2022-08-17T05:01:49.903Z,18.75
2022-08-17T05:05:51.475Z,18.79
2022-08-17T05:09:52.914Z,18.68
2022-08-17T05:13:55.515Z,18.65
2022-08-17T05:17:57.247Z,18.63
2022-08-17T05:21:58.690Z,18.73
2022-08-17T05:26:00.237Z,18.80
2022-08-17T05:30:03.963Z,18.94
2022-08-17T05:34:05.455Z,18.93
2022-08-17T05:38:08.243Z,18.83
2022-08-17T05:42:09.797Z,18.85
2022-08-17T05:46:17.299Z,18.94
2022-08-17T05:50:27.163Z,19.06
2022-08-17T05:55:00.510Z,19.13
2022-08-17T05:59:18.762Z,19.21
2022-08-17T06:03:35.008Z,19.27
2022-08-17T06:07:49.604Z,19.28
2022-08-17T06:12:00.050Z,19.38
2022-08-17T06:16:33.291Z,19.55
2022-08-17T06:20:45.562Z,19.64
2022-08-17T06:24:57.898Z,19.69
2022-08-17T06:29:08.215Z,19.72
2022-08-17T06:33:26.721Z,19.79
2022-08-17T06:37:34.345Z,19.98
2022-08-17T06:41:53.939Z,20.08
2022-08-17T06:46:08.055Z,20.13
2022-08-17T06:50:27.064Z,20.12
2022-08-17T06:54:37.803Z,20.16
2022-08-17T06:58:41.648Z,20.28
2022-08-17T07:02:56.693Z,20.37
2022-08-17T07:07:37.708Z,20.41
2022-08-17T07:11:50.453Z,20.45
2022-08-17T07:15:57.545Z,20.50
2022-08-17T07:20:06.300Z,20.51
2022-08-17T07:24:33.056Z,20.62
2022-08-17T07:28:35.999Z,20.74
2022-08-17T07:32:45.102Z,20.81
2022-08-17T07:36:46.519Z,20.88
2022-08-17T07:40:57.470Z,20.94
2022-08-17T07:45:18.881Z,20.94
2022-08-17T07:49:31.688Z,20.92
2022-08-17T07:53:33.226Z,20.90
2022-08-17T07:57:36.129Z,20.93
2022-08-17T08:01:41.908Z,21.04
2022-08-17T08:05:53.629Z,21.61
2022-08-17T08:10:27.575Z,22.31
2022-08-17T08:14:38.125Z,22.71
2022-08-17T08:18:55.382Z,22.92
2022-08-17T08:23:10.544Z,22.83
2022-08-17T08:27:27.679Z,22.79
2022-08-17T08:32:06.300Z,23.01
2022-08-17T08:37:14.295Z,23.50
2022-08-17T08:41:07.795Z,24.51
2022-08-17T08:45:21.618Z,25.18
2022-08-17T08:50:06.967Z,25.75
2022-08-17T08:54:34.286Z,25.48
2022-08-17T08:59:05.207Z,24.99
2022-08-17T09:03:52.791Z,24.86
2022-08-17T09:08:04.029Z,25.22
2022-08-17T09:12:17.363Z,25.77
2022-08-17T09:16:30.074Z,26.17
2022-08-17T09:20:46.631Z,26.24
2022-08-17T09:25:07.949Z,26.35
2022-08-17T09:29:14.067Z,26.80
2022-08-17T09:33:22.900Z,27.30
2022-08-17T09:37:35.482Z,27.62
2022-08-17T09:41:48.520Z,27.86
2022-08-17T09:45:54.247Z,27.59
2022-08-17T09:50:03.353Z,26.98
2022-08-17T09:54:36.872Z,26.12
2022-08-17T09:58:59.243Z,26.15
2022-08-17T10:03:20.021Z,26.55
2022-08-17T10:07:46.641Z,26.78
2022-08-17T10:12:17.352Z,27.09
2022-08-17T10:16:41.168Z,27.61
2022-08-17T10:20:49.091Z,28.02
2022-08-17T10:25:23.935Z,27.77
2022-08-17T10:29:47.317Z,27.65
2022-08-17T10:34:18.943Z,27.35
2022-08-17T10:38:29.831Z,27.42
2022-08-17T10:42:37.247Z,27.56
2022-08-17T10:47:07.347Z,27.60
2022-08-17T10:51:10.959Z,27.79
2022-08-17T10:55:18.577Z,28.13
2022-08-17T10:59:38.558Z,28.62
2022-08-17T11:03:57.975Z,28.99
2022-08-17T11:08:37.795Z,29.39
2022-08-17T11:12:51.534Z,29.22
2022-08-17T11:17:51.280Z,29.18
2022-08-17T11:22:12.202Z,29.15
2022-08-17T11:26:32.274Z,28.63
2022-08-17T11:30:48.648Z,28.94
2022-08-17T11:35:05.062Z,29.35
2022-08-17T11:39:15.555Z,29.51
2022-08-17T11:43:30.421Z,29.47
2022-08-17T11:48:26.093Z,29.66
2022-08-17T11:52:40.757Z,29.89
2022-08-17T11:56:49.096Z,30.18
2022-08-17T12:00:56.527Z,30.35
2022-08-17T12:05:01.894Z,30.48
2022-08-17T12:09:18.190Z,30.54
2022-08-17T12:13:21.477Z,30.49
2022-08-17T12:17:41.004Z,30.65
2022-08-17T12:21:59.986Z,30.84
2022-08-17T12:26:23.305Z,30.78
2022-08-17T12:30:25.954Z,31.00
2022-08-17T12:34:38.265Z,31.11
2022-08-17T12:38:39.738Z,31.12
2022-08-17T12:42:41.440Z,31.26
2022-08-17T12:46:59.260Z,31.12
2022-08-17T12:51:04.746Z,31.14
2022-08-17T12:55:21.148Z,31.11
2022-08-17T12:59:30.236Z,31.16
2022-08-17T13:03:40.248Z,31.38
2022-08-17T13:07:42.581Z,31.46
2022-08-17T13:11:55.087Z,31.11
2022-08-17T13:16:17.191Z,30.50
2022-08-17T13:20:18.865Z,30.60
2022-08-17T13:24:29.855Z,30.78
2022-08-17T13:28:47.707Z,30.82
2022-08-17T13:32:49.586Z,30.96
2022-08-17T13:37:13.937Z,30.54
2022-08-17T13:41:36.026Z,30.06
2022-08-17T13:45:43.437Z,29.93
2022-08-17T13:49:48.724Z,30.38
2022-08-17T13:53:54.801Z,30.40
2022-08-17T13:58:06.654Z,30.23
2022-08-17T14:02:11.214Z,30.43
2022-08-17T14:06:12.753Z,30.47
2022-08-17T14:10:25.917Z,30.63
2022-08-17T14:14:27.593Z,30.72
2022-08-17T14:18:53.495Z,30.50
2022-08-17T14:22:53.848Z,30.40
2022-08-17T14:26:56.401Z,30.37
2022-08-17T14:30:57.877Z,30.35
2022-08-17T14:35:00.702Z,30.60
2022-08-17T14:39:02.258Z,30.88
2022-08-17T14:43:03.894Z,31.11
2022-08-17T14:47:07.347Z,31.24
2022-08-17T14:51:09.294Z,31.39
2022-08-17T14:55:13.232Z,31.49
2022-08-17T14:59:16.942Z,31.51
2022-08-17T15:03:18.849Z,31.27
2022-08-17T15:07:20.470Z,30.77
2022-08-17T15:11:27.844Z,30.47
2022-08-17T15:15:29.616Z,30.59
2022-08-17T15:19:31.038Z,30.49
2022-08-17T15:23:32.967Z,30.35
2022-08-17T15:27:34.934Z,30.31
2022-08-17T15:31:36.767Z,30.41
2022-08-17T15:35:38.215Z,30.58
2022-08-17T15:39:39.627Z,30.75
2022-08-17T15:43:42.657Z,30.81
2022-08-17T15:47:44.125Z,31.02
2022-08-17T15:51:45.649Z,31.02
2022-08-17T15:55:47.298Z,31.17
2022-08-17T15:59:55.094Z,31.26
2022-08-17T16:04:06.630Z,31.48
2022-08-17T16:08:11.076Z,31.10
2022-08-17T16:12:16.543Z,30.87
2022-08-17T16:16:18.100Z,30.94
2022-08-17T16:20:21.003Z,31.02
2022-08-17T16:24:22.678Z,30.89
2022-08-17T16:28:29.873Z,30.54
2022-08-17T16:32:38.213Z,30.18
2022-08-17T16:36:39.902Z,29.93
2022-08-17T16:40:42.261Z,29.66
2022-08-17T16:44:43.697Z,29.46
2022-08-17T16:48:46.433Z,29.37
2022-08-17T16:52:48.519Z,29.34
2022-08-17T16:56:50.378Z,29.25
2022-08-17T17:00:51.919Z,29.18
2022-08-17T17:05:02.947Z,29.08
2022-08-17T17:09:11.171Z,28.96
2022-08-17T17:13:44.324Z,28.91
2022-08-17T17:17:48.452Z,28.79
2022-08-17T17:21:53.201Z,28.74
2022-08-17T17:26:13.449Z,28.70
2022-08-17T17:30:20.621Z,28.64
2022-08-17T17:34:22.768Z,28.48
2022-08-17T17:38:29.472Z,28.28
2022-08-17T17:42:32.693Z,28.13
2022-08-17T17:46:40.540Z,27.98
2022-08-17T17:50:50.620Z,27.83
2022-08-17T17:55:13.464Z,27.64
2022-08-17T17:59:21.850Z,27.48
2022-08-17T18:03:46.690Z,27.28
2022-08-17T18:08:09.237Z,26.99
2022-08-17T18:12:12.686Z,26.82
2022-08-17T18:16:14.233Z,26.68
2022-08-17T18:20:23.773Z,26.48
2022-08-17T18:24:55.793Z,26.23
2022-08-17T18:28:57.285Z,26.04
2022-08-17T18:33:23.389Z,25.84
2022-08-17T18:37:45.164Z,25.64
2022-08-17T18:41:48.595Z,25.27
2022-08-17T18:45:53.601Z,24.96
2022-08-17T18:49:59.106Z,24.74
2022-08-17T18:54:15.546Z,24.61
2022-08-17T18:58:24.457Z,24.45
2022-08-17T19:02:43.370Z,24.33
2022-08-17T19:06:46.543Z,24.19
2022-08-17T19:10:58.358Z,24.03
2022-08-17T19:15:00.400Z,23.89
2022-08-17T19:19:09.415Z,23.71
2022-08-17T19:23:25.294Z,23.63
2022-08-17T19:28:15.356Z,23.52
2022-08-17T19:32:33.902Z,23.44
2022-08-17T19:36:51.598Z,23.34
2022-08-17T19:41:07.209Z,23.27
2022-08-17T19:45:29.648Z,23.18
2022-08-17T19:49:49.480Z,23.08
2022-08-17T19:54:05.753Z,22.93
2022-08-17T19:58:17.811Z,22.81
2022-08-17T20:02:31.116Z,22.68
2022-08-17T20:06:37.258Z,22.63
2022-08-17T20:10:45.199Z,22.58
2022-08-17T20:14:58.797Z,22.50
2022-08-17T20:19:12.112Z,22.40
2022-08-17T20:23:30.700Z,22.35
2022-08-17T20:27:47.860Z,22.31
2022-08-17T20:31:54.045Z,22.23
2022-08-17T20:36:17.367Z,22.19
2022-08-17T20:40:26.286Z,22.12
2022-08-17T20:44:33.654Z,22.10
2022-08-17T20:48:41.058Z,22.02
2022-08-17T20:52:51.345Z,21.96
2022-08-17T20:56:57.569Z,21.89
2022-08-17T21:00:59.979Z,21.83
2022-08-17T21:05:07.829Z,21.73
2022-08-17T21:09:12.549Z,21.57
2022-08-17T21:13:15.397Z,21.47
2022-08-17T21:17:33.637Z,21.46
2022-08-17T21:22:05.397Z,21.47
2022-08-17T21:26:18.385Z,21.42
2022-08-17T21:30:28.984Z,21.32
2022-08-17T21:34:38.053Z,21.29
2022-08-17T21:38:57.749Z,21.27
2022-08-17T21:43:17.009Z,21.29
2022-08-17T21:47:25.392Z,21.26
2022-08-17T21:51:29.541Z,21.24
2022-08-17T21:55:33.075Z,21.19
2022-08-17T21:59:39.800Z,21.02
2022-08-17T22:03:47.819Z,21.04
2022-08-17T22:07:58.764Z,21.00
2022-08-17T22:12:06.290Z,20.98
2022-08-17T22:16:27.722Z,20.96
2022-08-17T22:20:31.041Z,20.95
2022-08-17T22:24:32.727Z,20.93
2022-08-17T22:28:49.762Z,20.87
2022-08-17T22:32:51.469Z,20.73
2022-08-17T22:37:28.611Z,20.72
2022-08-17T22:41:32.248Z,20.74
2022-08-17T22:45:44.554Z,20.73
2022-08-17T22:49:53.922Z,20.72
2022-08-17T22:54:21.454Z,20.66
2022-08-17T22:58:42.941Z,20.64
2022-08-17T23:03:09.613Z,20.51
2022-08-17T23:07:11.738Z,20.44
2022-08-17T23:11:14.990Z,20.43
2022-08-17T23:15:19.179Z,20.42
2022-08-17T23:19:21.753Z,20.37
2022-08-17T23:23:23.893Z,20.38
2022-08-17T23:27:29.220Z,20.37
2022-08-17T23:31:34.650Z,20.34
2022-08-17T23:35:40.052Z,20.31
2022-08-17T23:39:44.983Z,20.18
2022-08-17T23:43:49.173Z,20.16
2022-08-17T23:47:50.779Z,20.11
2022-08-17T23:51:55.846Z,20.09
2022-08-17T23:56:09.543Z,20.06
